sensor_id;sensor_type;location;lat;lon;timestamp;pressure;altitude;pressure_sealevel;temperature;humidity
15817;BME280;8009;50.070;8.232;2023-01-27T00:00:09;100454.94;;;2.72;78.27
15817;BME280;8009;50.070;8.232;2023-01-27T00:02:39;100444.19;;;2.75;78.39
15817;BME280;8009;50.070;8.232;2023-01-27T00:05:09;100448.69;;;2.73;78.60
15817;BME280;8009;50.070;8.232;2023-01-27T00:07:41;100453.31;;;2.68;78.79
15817;BME280;8009;50.070;8.232;2023-01-27T00:10:12;100450.16;;;2.57;78.90
15817;BME280;8009;50.070;8.232;2023-01-27T00:12:42;100452.38;;;2.69;79.19
15817;BME280;8009;50.070;8.232;2023-01-27T00:15:23;100451.78;;;2.61;79.13
15817;BME280;8009;50.070;8.232;2023-01-27T00:17:51;100451.63;;;2.65;78.97
15817;BME280;8009;50.070;8.232;2023-01-27T00:20:19;100455.91;;;2.69;78.80
15817;BME280;8009;50.070;8.232;2023-01-27T00:23:17;100450.38;;;2.76;78.96
15817;BME280;8009;50.070;8.232;2023-01-27T00:25:59;100452.28;;;2.72;78.93
15817;BME280;8009;50.070;8.232;2023-01-27T00:28:30;100445.41;;;2.40;80.05
15817;BME280;8009;50.070;8.232;2023-01-27T00:30:59;100449.44;;;2.27;80.40
15817;BME280;8009;50.070;8.232;2023-01-27T00:33:27;100450.97;;;2.34;80.99
15817;BME280;8009;50.070;8.232;2023-01-27T00:35:58;100450.63;;;2.43;80.27
15817;BME280;8009;50.070;8.232;2023-01-27T00:38:31;100446.50;;;2.34;80.30
15817;BME280;8009;50.070;8.232;2023-01-27T00:41:05;100440.41;;;2.31;80.46
15817;BME280;8009;50.070;8.232;2023-01-27T00:43:43;100450.00;;;2.10;81.35
15817;BME280;8009;50.070;8.232;2023-01-27T00:46:12;100445.94;;;2.00;81.64
15817;BME280;8009;50.070;8.232;2023-01-27T00:48:40;100435.91;;;2.33;80.89
15817;BME280;8009;50.070;8.232;2023-01-27T00:51:09;100437.69;;;2.32;80.24
15817;BME280;8009;50.070;8.232;2023-01-27T00:53:40;100434.38;;;2.26;80.68
15817;BME280;8009;50.070;8.232;2023-01-27T00:56:09;100434.16;;;2.32;80.86
15817;BME280;8009;50.070;8.232;2023-01-27T00:58:38;100441.94;;;2.38;80.50
15817;BME280;8009;50.070;8.232;2023-01-27T01:01:13;100439.25;;;2.13;80.81
15817;BME280;8009;50.070;8.232;2023-01-27T01:03:43;100445.69;;;2.32;80.63
15817;BME280;8009;50.070;8.232;2023-01-27T01:06:13;100441.25;;;2.33;80.62
15817;BME280;8009;50.070;8.232;2023-01-27T01:08:44;100437.28;;;2.44;80.07
15817;BME280;8009;50.070;8.232;2023-01-27T01:11:14;100438.47;;;2.61;79.27
15817;BME280;8009;50.070;8.232;2023-01-27T01:13:44;100448.75;;;2.72;79.44
15817;BME280;8009;50.070;8.232;2023-01-27T01:16:15;100444.97;;;2.77;78.88
15817;BME280;8009;50.070;8.232;2023-01-27T01:18:46;100447.66;;;2.52;80.64
15817;BME280;8009;50.070;8.232;2023-01-27T01:21:15;100446.47;;;1.83;83.02
15817;BME280;8009;50.070;8.232;2023-01-27T01:23:46;100453.75;;;2.04;82.13
15817;BME280;8009;50.070;8.232;2023-01-27T01:26:15;100462.25;;;2.42;81.05
15817;BME280;8009;50.070;8.232;2023-01-27T01:28:44;100459.28;;;2.25;81.71
15817;BME280;8009;50.070;8.232;2023-01-27T01:31:14;100457.13;;;2.61;80.58
15817;BME280;8009;50.070;8.232;2023-01-27T01:33:43;100454.63;;;2.56;80.83
15817;BME280;8009;50.070;8.232;2023-01-27T01:36:13;100462.66;;;2.80;79.62
15817;BME280;8009;50.070;8.232;2023-01-27T01:38:42;100458.56;;;2.71;79.68
15817;BME280;8009;50.070;8.232;2023-01-27T01:41:16;100460.25;;;2.22;81.60
15817;BME280;8009;50.070;8.232;2023-01-27T01:43:45;100460.09;;;2.52;80.56
15817;BME280;8009;50.070;8.232;2023-01-27T01:46:13;100453.75;;;2.56;80.72
15817;BME280;8009;50.070;8.232;2023-01-27T01:48:45;100456.22;;;2.37;81.53
15817;BME280;8009;50.070;8.232;2023-01-27T01:51:17;100457.06;;;2.37;81.49
15817;BME280;8009;50.070;8.232;2023-01-27T01:53:57;100458.69;;;2.66;80.33
15817;BME280;8009;50.070;8.232;2023-01-27T01:56:34;100452.28;;;2.72;79.97
15817;BME280;8009;50.070;8.232;2023-01-27T01:59:07;100448.47;;;2.54;80.83
15817;BME280;8009;50.070;8.232;2023-01-27T02:01:38;100444.59;;;2.63;80.40
15817;BME280;8009;50.070;8.232;2023-01-27T02:04:10;100450.16;;;2.57;80.58
15817;BME280;8009;50.070;8.232;2023-01-27T02:06:44;100449.06;;;2.37;81.14
15817;BME280;8009;50.070;8.232;2023-01-27T02:09:15;100448.03;;;2.41;80.98
15817;BME280;8009;50.070;8.232;2023-01-27T02:11:45;100444.84;;;2.57;80.92
15817;BME280;8009;50.070;8.232;2023-01-27T02:14:15;100450.28;;;2.54;80.79
15817;BME280;8009;50.070;8.232;2023-01-27T02:16:44;100450.16;;;2.57;81.04
15817;BME280;8009;50.070;8.232;2023-01-27T02:19:19;100446.50;;;2.59;80.89
15817;BME280;8009;50.070;8.232;2023-01-27T02:21:49;100447.13;;;2.67;80.77
15817;BME280;8009;50.070;8.232;2023-01-27T02:24:20;100443.34;;;2.73;80.52
15817;BME280;8009;50.070;8.232;2023-01-27T02:26:52;100444.09;;;2.52;81.12
15817;BME280;8009;50.070;8.232;2023-01-27T02:29:20;100447.06;;;2.69;80.96
15817;BME280;8009;50.070;8.232;2023-01-27T02:31:49;100449.03;;;2.64;80.67
15817;BME280;8009;50.070;8.232;2023-01-27T02:34:19;100447.84;;;2.96;79.69
15817;BME280;8009;50.070;8.232;2023-01-27T02:36:54;100450.28;;;2.79;80.34
15817;BME280;8009;50.070;8.232;2023-01-27T02:39:28;100452.53;;;2.14;82.57
15817;BME280;8009;50.070;8.232;2023-01-27T02:42:03;100450.00;;;2.61;81.78
15817;BME280;8009;50.070;8.232;2023-01-27T02:44:34;100452.19;;;2.99;80.05
15817;BME280;8009;50.070;8.232;2023-01-27T02:47:02;100450.31;;;2.77;80.41
15817;BME280;8009;50.070;8.232;2023-01-27T02:49:31;100454.09;;;2.72;80.65
15817;BME280;8009;50.070;8.232;2023-01-27T02:51:59;100448.84;;;2.43;82.13
15817;BME280;8009;50.070;8.232;2023-01-27T02:54:29;100451.84;;;2.34;82.61
15817;BME280;8009;50.070;8.232;2023-01-27T02:56:57;100450.81;;;2.63;81.36
15817;BME280;8009;50.070;8.232;2023-01-27T02:59:28;100442.22;;;3.04;80.20
15817;BME280;8009;50.070;8.232;2023-01-27T03:01:56;100444.69;;;2.85;80.87
15817;BME280;8009;50.070;8.232;2023-01-27T03:04:25;100450.97;;;2.84;80.60
15817;BME280;8009;50.070;8.232;2023-01-27T03:06:53;100442.69;;;3.15;79.60
15817;BME280;8009;50.070;8.232;2023-01-27T03:09:21;100441.34;;;3.27;79.02
15817;BME280;8009;50.070;8.232;2023-01-27T03:11:50;100447.91;;;3.18;79.35
15817;BME280;8009;50.070;8.232;2023-01-27T03:14:33;100455.03;;;3.17;79.53
15817;BME280;8009;50.070;8.232;2023-01-27T03:17:14;100452.75;;;3.30;78.86
15817;BME280;8009;50.070;8.232;2023-01-27T03:19:54;100446.63;;;3.28;79.19
15817;BME280;8009;50.070;8.232;2023-01-27T03:22:23;100458.91;;;3.09;79.08
15817;BME280;8009;50.070;8.232;2023-01-27T03:24:51;100458.63;;;3.16;78.79
15817;BME280;8009;50.070;8.232;2023-01-27T03:27:20;100463.81;;;3.21;78.23
15817;BME280;8009;50.070;8.232;2023-01-27T03:29:51;100462.56;;;3.30;77.90
15817;BME280;8009;50.070;8.232;2023-01-27T03:32:23;100457.50;;;3.46;77.34
15817;BME280;8009;50.070;8.232;2023-01-27T03:34:52;100461.44;;;3.35;77.00
15817;BME280;8009;50.070;8.232;2023-01-27T03:37:22;100460.78;;;3.07;77.76
15817;BME280;8009;50.070;8.232;2023-01-27T03:40:04;100466.56;;;2.95;78.09
15817;BME280;8009;50.070;8.232;2023-01-27T03:42:45;100467.22;;;3.25;77.01
15817;BME280;8009;50.070;8.232;2023-01-27T03:45:28;100459.13;;;3.50;76.06
15817;BME280;8009;50.070;8.232;2023-01-27T03:48:10;100464.03;;;3.15;77.69
15817;BME280;8009;50.070;8.232;2023-01-27T03:50:39;100456.00;;;3.38;76.70
15817;BME280;8009;50.070;8.232;2023-01-27T03:53:08;100464.56;;;3.47;75.85
15817;BME280;8009;50.070;8.232;2023-01-27T03:55:42;100461.56;;;3.56;76.35
15817;BME280;8009;50.070;8.232;2023-01-27T03:58:18;100464.31;;;3.07;77.54
15817;BME280;8009;50.070;8.232;2023-01-27T04:00:50;100466.44;;;2.98;78.06
15817;BME280;8009;50.070;8.232;2023-01-27T04:03:21;100465.06;;;3.34;76.30
15817;BME280;8009;50.070;8.232;2023-01-27T04:06:03;100455.78;;;3.45;75.97
15817;BME280;8009;50.070;8.232;2023-01-27T04:08:44;100457.13;;;3.55;74.99
15817;BME280;8009;50.070;8.232;2023-01-27T04:11:12;100455.31;;;3.79;74.33
15817;BME280;8009;50.070;8.232;2023-01-27T04:13:53;100457.88;;;3.36;75.14
15817;BME280;8009;50.070;8.232;2023-01-27T04:16:24;100469.16;;;3.43;75.16
15817;BME280;8009;50.070;8.232;2023-01-27T04:18:53;100465.22;;;3.53;74.68
15817;BME280;8009;50.070;8.232;2023-01-27T04:21:21;100468.03;;;3.27;76.04
15817;BME280;8009;50.070;8.232;2023-01-27T04:23:50;100468.81;;;3.52;75.93
15817;BME280;8009;50.070;8.232;2023-01-27T04:26:18;100472.91;;;3.15;76.79
15817;BME280;8009;50.070;8.232;2023-01-27T04:28:47;100467.28;;;3.00;77.26
15817;BME280;8009;50.070;8.232;2023-01-27T04:31:16;100467.75;;;3.11;76.37
15817;BME280;8009;50.070;8.232;2023-01-27T04:33:47;100467.09;;;3.28;75.89
15817;BME280;8009;50.070;8.232;2023-01-27T04:36:15;100465.72;;;2.94;77.40
15817;BME280;8009;50.070;8.232;2023-01-27T04:38:45;100468.59;;;3.11;76.20
15817;BME280;8009;50.070;8.232;2023-01-27T04:41:14;100476.50;;;3.14;76.10
15817;BME280;8009;50.070;8.232;2023-01-27T04:43:42;100478.69;;;3.27;75.66
15817;BME280;8009;50.070;8.232;2023-01-27T04:46:10;100481.19;;;3.31;75.38
15817;BME280;8009;50.070;8.232;2023-01-27T04:48:38;100476.41;;;3.39;75.29
15817;BME280;8009;50.070;8.232;2023-01-27T04:51:09;100472.13;;;3.35;74.96
15817;BME280;8009;50.070;8.232;2023-01-27T04:53:38;100478.41;;;3.11;76.45
15817;BME280;8009;50.070;8.232;2023-01-27T04:56:19;100470.59;;;3.30;75.04
15817;BME280;8009;50.070;8.232;2023-01-27T04:58:49;100477.72;;;3.29;75.30
15817;BME280;8009;50.070;8.232;2023-01-27T05:01:17;100471.03;;;3.41;74.84
15817;BME280;8009;50.070;8.232;2023-01-27T05:03:46;100481.47;;;3.47;74.88
15817;BME280;8009;50.070;8.232;2023-01-27T05:06:17;100484.28;;;3.44;74.94
15817;BME280;8009;50.070;8.232;2023-01-27T05:08:45;100478.03;;;3.67;74.93
15817;BME280;8009;50.070;8.232;2023-01-27T05:11:14;100478.94;;;3.66;75.27
15817;BME280;8009;50.070;8.232;2023-01-27T05:13:43;100487.53;;;3.74;75.21
15817;BME280;8009;50.070;8.232;2023-01-27T05:16:13;100481.94;;;3.80;74.89
15817;BME280;8009;50.070;8.232;2023-01-27T05:18:46;100486.00;;;3.90;74.43
15817;BME280;8009;50.070;8.232;2023-01-27T05:21:19;100488.72;;;3.67;74.93
15817;BME280;8009;50.070;8.232;2023-01-27T05:23:48;100496.72;;;3.67;76.03
15817;BME280;8009;50.070;8.232;2023-01-27T05:26:18;100489.06;;;3.58;75.86
15817;BME280;8009;50.070;8.232;2023-01-27T05:28:48;100493.84;;;3.50;75.48
15817;BME280;8009;50.070;8.232;2023-01-27T05:31:19;100501.84;;;3.03;76.40
15817;BME280;8009;50.070;8.232;2023-01-27T05:33:49;100508.34;;;3.19;77.01
15817;BME280;8009;50.070;8.232;2023-01-27T05:36:22;100505.34;;;3.28;76.55
15817;BME280;8009;50.070;8.232;2023-01-27T05:38:51;100506.50;;;3.21;77.32
15817;BME280;8009;50.070;8.232;2023-01-27T05:41:19;100517.00;;;3.26;76.94
15817;BME280;8009;50.070;8.232;2023-01-27T05:43:51;100515.56;;;3.40;76.74
15817;BME280;8009;50.070;8.232;2023-01-27T05:46:22;100512.41;;;3.06;77.75
15817;BME280;8009;50.070;8.232;2023-01-27T05:48:52;100506.66;;;3.16;78.04
15817;BME280;8009;50.070;8.232;2023-01-27T05:51:24;100517.59;;;3.09;76.78
15817;BME280;8009;50.070;8.232;2023-01-27T05:53:54;100513.22;;;3.08;76.28
15817;BME280;8009;50.070;8.232;2023-01-27T05:56:24;100514.59;;;2.95;77.71
15817;BME280;8009;50.070;8.232;2023-01-27T05:58:56;100519.06;;;2.94;77.37
15817;BME280;8009;50.070;8.232;2023-01-27T06:01:27;100526.53;;;3.08;76.27
15817;BME280;8009;50.070;8.232;2023-01-27T06:03:57;100524.91;;;3.04;76.17
15817;BME280;8009;50.070;8.232;2023-01-27T06:06:29;100530.00;;;3.35;75.55
15817;BME280;8009;50.070;8.232;2023-01-27T06:08:58;100526.53;;;3.08;76.31
15817;BME280;8009;50.070;8.232;2023-01-27T06:11:27;100527.41;;;3.08;76.39
15817;BME280;8009;50.070;8.232;2023-01-27T06:13:56;100529.47;;;3.25;76.11
15817;BME280;8009;50.070;8.232;2023-01-27T06:16:24;100527.19;;;2.89;77.34
15817;BME280;8009;50.070;8.232;2023-01-27T06:18:53;100525.38;;;2.91;77.45
15817;BME280;8009;50.070;8.232;2023-01-27T06:21:22;100527.56;;;3.29;75.98
15817;BME280;8009;50.070;8.232;2023-01-27T06:23:53;100527.13;;;3.16;76.83
15817;BME280;8009;50.070;8.232;2023-01-27T06:26:22;100524.75;;;3.08;76.65
15817;BME280;8009;50.070;8.232;2023-01-27T06:28:50;100528.81;;;3.18;76.88
15817;BME280;8009;50.070;8.232;2023-01-27T06:31:23;100527.97;;;3.18;76.28
15817;BME280;8009;50.070;8.232;2023-01-27T06:33:52;100537.38;;;3.03;77.17
15817;BME280;8009;50.070;8.232;2023-01-27T06:36:21;100543.88;;;3.21;76.37
15817;BME280;8009;50.070;8.232;2023-01-27T06:38:49;100541.97;;;3.25;75.76
15817;BME280;8009;50.070;8.232;2023-01-27T06:41:22;100544.19;;;3.12;76.22
15817;BME280;8009;50.070;8.232;2023-01-27T06:43:50;100545.03;;;3.12;76.32
15817;BME280;8009;50.070;8.232;2023-01-27T06:46:18;100553.22;;;3.33;76.01
15817;BME280;8009;50.070;8.232;2023-01-27T06:48:47;100561.63;;;3.22;75.47
15817;BME280;8009;50.070;8.232;2023-01-27T06:53:50;100555.06;;;3.54;74.14
15817;BME280;8009;50.070;8.232;2023-01-27T06:56:21;100552.22;;;3.35;75.04
15817;BME280;8009;50.070;8.232;2023-01-27T06:58:50;100552.56;;;3.50;74.96
15817;BME280;8009;50.070;8.232;2023-01-27T07:01:18;100549.78;;;3.53;75.51
15817;BME280;8009;50.070;8.232;2023-01-27T07:03:47;100546.28;;;3.51;74.29
15817;BME280;8009;50.070;8.232;2023-01-27T07:06:15;100552.47;;;3.53;74.08
15817;BME280;8009;50.070;8.232;2023-01-27T07:08:44;100557.50;;;3.60;74.18
15817;BME280;8009;50.070;8.232;2023-01-27T07:11:14;100564.09;;;3.27;75.25
15817;BME280;8009;50.070;8.232;2023-01-27T07:13:45;100562.69;;;3.41;75.06
15817;BME280;8009;50.070;8.232;2023-01-27T07:16:15;100566.19;;;3.18;75.61
15817;BME280;8009;50.070;8.232;2023-01-27T07:21:18;100569.91;;;3.38;74.92
15817;BME280;8009;50.070;8.232;2023-01-27T07:23:47;100572.97;;;3.27;75.51
15817;BME280;8009;50.070;8.232;2023-01-27T07:44:16;100580.69;;;3.60;74.84
15817;BME280;8009;50.070;8.232;2023-01-27T07:46:46;100585.47;;;3.50;75.22
15817;BME280;8009;50.070;8.232;2023-01-27T07:49:19;100589.16;;;3.71;73.65
15817;BME280;8009;50.070;8.232;2023-01-27T07:51:48;100586.09;;;3.82;73.42
15817;BME280;8009;50.070;8.232;2023-01-27T07:54:16;100583.88;;;3.93;73.26
15817;BME280;8009;50.070;8.232;2023-01-27T07:56:45;100601.34;;;3.78;73.78
15817;BME280;8009;50.070;8.232;2023-01-27T07:59:16;100595.66;;;3.87;73.13
15817;BME280;8009;50.070;8.232;2023-01-27T08:01:46;100596.69;;;3.83;73.41
15817;BME280;8009;50.070;8.232;2023-01-27T08:04:14;100603.72;;;3.86;73.29
15817;BME280;8009;50.070;8.232;2023-01-27T08:06:43;100602.19;;;4.02;73.04
15817;BME280;8009;50.070;8.232;2023-01-27T08:09:11;100599.81;;;3.95;73.24
15817;BME280;8009;50.070;8.232;2023-01-27T08:11:43;100597.56;;;3.60;74.33
15817;BME280;8009;50.070;8.232;2023-01-27T08:14:17;100607.13;;;3.42;75.06
15817;BME280;8009;50.070;8.232;2023-01-27T08:16:49;100607.84;;;3.71;74.35
15817;BME280;8009;50.070;8.232;2023-01-27T08:19:17;100605.56;;;3.84;73.87
15817;BME280;8009;50.070;8.232;2023-01-27T08:21:46;100608.31;;;3.59;73.91
15817;BME280;8009;50.070;8.232;2023-01-27T08:24:14;100604.88;;;3.79;73.70
15817;BME280;8009;50.070;8.232;2023-01-27T08:26:44;100606.50;;;3.83;73.69
15817;BME280;8009;50.070;8.232;2023-01-27T08:29:12;100607.59;;;3.77;74.78
15817;BME280;8009;50.070;8.232;2023-01-27T08:31:44;100607.50;;;3.80;74.01
15817;BME280;8009;50.070;8.232;2023-01-27T08:34:12;100609.75;;;3.67;74.04
15817;BME280;8009;50.070;8.232;2023-01-27T08:36:41;100614.06;;;3.72;73.63
15817;BME280;8009;50.070;8.232;2023-01-27T08:39:10;100622.13;;;3.94;72.63
15817;BME280;8009;50.070;8.232;2023-01-27T08:41:39;100613.59;;;3.84;73.50
15817;BME280;8009;50.070;8.232;2023-01-27T08:44:07;100625.16;;;3.84;74.02
15817;BME280;8009;50.070;8.232;2023-01-27T08:46:36;100627.75;;;3.62;75.27
15817;BME280;8009;50.070;8.232;2023-01-27T08:49:08;100629.72;;;3.81;73.30
15817;BME280;8009;50.070;8.232;2023-01-27T08:51:38;100632.97;;;3.65;74.61
15817;BME280;8009;50.070;8.232;2023-01-27T08:54:07;100638.56;;;3.59;74.14
15817;BME280;8009;50.070;8.232;2023-01-27T08:56:37;100641.13;;;3.86;73.09
15817;BME280;8009;50.070;8.232;2023-01-27T08:59:05;100637.72;;;4.04;72.54
15817;BME280;8009;50.070;8.232;2023-01-27T09:01:33;100641.22;;;4.06;72.94
15817;BME280;8009;50.070;8.232;2023-01-27T09:04:02;100638.75;;;4.02;73.14
15817;BME280;8009;50.070;8.232;2023-01-27T09:06:33;100642.00;;;4.10;72.54
15817;BME280;8009;50.070;8.232;2023-01-27T09:09:01;100644.19;;;3.99;73.17
15817;BME280;8009;50.070;8.232;2023-01-27T09:11:36;100653.34;;;4.15;72.36
15817;BME280;8009;50.070;8.232;2023-01-27T09:14:05;100650.22;;;3.80;73.35
15817;BME280;8009;50.070;8.232;2023-01-27T09:16:34;100653.66;;;4.07;72.89
15817;BME280;8009;50.070;8.232;2023-01-27T09:19:02;100663.72;;;4.01;73.45
15817;BME280;8009;50.070;8.232;2023-01-27T09:21:34;100662.78;;;4.02;73.01
15817;BME280;8009;50.070;8.232;2023-01-27T09:24:02;100661.22;;;3.96;72.95
15817;BME280;8009;50.070;8.232;2023-01-27T09:26:30;100667.13;;;3.81;73.08
15817;BME280;8009;50.070;8.232;2023-01-27T09:28:59;100661.00;;;3.79;73.24
15817;BME280;8009;50.070;8.232;2023-01-27T09:31:27;100669.22;;;3.96;72.69
15817;BME280;8009;50.070;8.232;2023-01-27T09:33:56;100673.47;;;3.78;73.49
15817;BME280;8009;50.070;8.232;2023-01-27T09:36:25;100674.84;;;3.88;72.78
15817;BME280;8009;50.070;8.232;2023-01-27T09:38:59;100675.09;;;3.82;73.23
15817;BME280;8009;50.070;8.232;2023-01-27T09:44:49;100663.09;;;3.94;72.58
15817;BME280;8009;50.070;8.232;2023-01-27T09:47:49;100665.09;;;4.11;72.64
15817;BME280;8009;50.070;8.232;2023-01-27T09:55:39;100663.88;;;3.96;71.83
15817;BME280;8009;50.070;8.232;2023-01-27T09:58:15;100666.72;;;3.91;72.50
15817;BME280;8009;50.070;8.232;2023-01-27T10:00:56;100665.00;;;3.90;72.55
15817;BME280;8009;50.070;8.232;2023-01-27T10:03:53;100664.81;;;4.19;71.57
15817;BME280;8009;50.070;8.232;2023-01-27T10:06:39;100665.22;;;4.08;71.80
15817;BME280;8009;50.070;8.232;2023-01-27T10:32:33;100658.97;;;4.09;71.04
15817;BME280;8009;50.070;8.232;2023-01-27T10:53:10;100664.34;;;4.07;70.82
15817;BME280;8009;50.070;8.232;2023-01-27T11:00:52;100662.78;;;4.25;68.31
15817;BME280;8009;50.070;8.232;2023-01-27T11:05:51;100668.50;;;4.16;68.70
15817;BME280;8009;50.070;8.232;2023-01-27T11:08:26;100670.22;;;4.17;68.66
15817;BME280;8009;50.070;8.232;2023-01-27T11:10:59;100665.22;;;4.08;68.68
15817;BME280;8009;50.070;8.232;2023-01-27T11:18:55;100665.53;;;4.24;68.36
15817;BME280;8009;50.070;8.232;2023-01-27T11:24:15;100658.06;;;4.54;67.82
15817;BME280;8009;50.070;8.232;2023-01-27T14:57:21;100671.19;;;4.60;69.83
15817;BME280;8009;50.070;8.232;2023-01-27T15:02:36;100679.53;;;4.52;69.87
15817;BME280;8009;50.070;8.232;2023-01-27T15:05:12;100684.13;;;4.49;70.29
15817;BME280;8009;50.070;8.232;2023-01-27T15:10:23;100684.38;;;4.64;69.77
15817;BME280;8009;50.070;8.232;2023-01-27T15:13:16;100683.81;;;4.78;69.49
15817;BME280;8009;50.070;8.232;2023-01-27T15:28:53;100693.47;;;4.60;69.48
15817;BME280;8009;50.070;8.232;2023-01-27T15:36:36;100702.53;;;4.56;68.64
15817;BME280;8009;50.070;8.232;2023-01-27T16:15:43;100725.63;;;4.59;69.09
15817;BME280;8009;50.070;8.232;2023-01-27T16:18:26;100721.16;;;4.59;70.29
15817;BME280;8009;50.070;8.232;2023-01-27T16:21:37;100716.47;;;4.64;69.21
15817;BME280;8009;50.070;8.232;2023-01-27T16:24:18;100724.03;;;4.53;69.75
15817;BME280;8009;50.070;8.232;2023-01-27T16:26:53;100725.75;;;4.56;69.58
15817;BME280;8009;50.070;8.232;2023-01-27T16:29:29;100725.13;;;4.71;68.77
15817;BME280;8009;50.070;8.232;2023-01-27T16:32:04;100720.00;;;4.88;67.99
15817;BME280;8009;50.070;8.232;2023-01-27T16:34:36;100727.16;;;4.64;68.80
15817;BME280;8009;50.070;8.232;2023-01-27T16:37:16;100726.50;;;4.59;69.48
15817;BME280;8009;50.070;8.232;2023-01-27T16:39:46;100716.50;;;4.86;68.23
15817;BME280;8009;50.070;8.232;2023-01-27T16:42:17;100733.69;;;4.57;69.46
15817;BME280;8009;50.070;8.232;2023-01-27T16:44:49;100726.56;;;4.58;70.08
15817;BME280;8009;50.070;8.232;2023-01-27T16:47:26;100722.69;;;4.65;68.82
15817;BME280;8009;50.070;8.232;2023-01-27T16:49:58;100735.56;;;4.55;69.49
15817;BME280;8009;50.070;8.232;2023-01-27T16:52:30;100730.59;;;4.68;69.44
15817;BME280;8009;50.070;8.232;2023-01-27T16:54:59;100734.91;;;4.72;69.16
15817;BME280;8009;50.070;8.232;2023-01-27T16:57:31;100739.06;;;4.79;68.76
15817;BME280;8009;50.070;8.232;2023-01-27T17:00:05;100726.94;;;4.93;68.19
15817;BME280;8009;50.070;8.232;2023-01-27T17:02:38;100737.41;;;4.53;69.53
15817;BME280;8009;50.070;8.232;2023-01-27T17:05:14;100741.16;;;4.49;70.03
15817;BME280;8009;50.070;8.232;2023-01-27T17:08:00;100733.69;;;4.57;69.94
15817;BME280;8009;50.070;8.232;2023-01-27T17:10:30;100740.66;;;4.61;69.58
15817;BME280;8009;50.070;8.232;2023-01-27T17:12:59;100740.81;;;4.58;69.42
15817;BME280;8009;50.070;8.232;2023-01-27T17:15:29;100733.03;;;4.74;69.32
15817;BME280;8009;50.070;8.232;2023-01-27T17:18:07;100743.28;;;4.63;70.25
15817;BME280;8009;50.070;8.232;2023-01-27T17:20:38;100749.31;;;4.68;69.96
15817;BME280;8009;50.070;8.232;2023-01-27T17:23:19;100747.66;;;4.66;70.10
15817;BME280;8009;50.070;8.232;2023-01-27T17:31:01;100761.25;;;4.59;70.34
15817;BME280;8009;50.070;8.232;2023-01-27T17:33:34;100752.88;;;4.69;70.38
15817;BME280;8009;50.070;8.232;2023-01-27T17:36:07;100759.03;;;4.71;70.27
15817;BME280;8009;50.070;8.232;2023-01-27T17:38:44;100761.84;;;4.68;70.78
15817;BME280;8009;50.070;8.232;2023-01-27T17:41:24;100769.22;;;4.37;71.50
15817;BME280;8009;50.070;8.232;2023-01-27T17:43:54;100761.34;;;4.58;70.92
15817;BME280;8009;50.070;8.232;2023-01-27T17:46:28;100761.03;;;4.42;71.60
15817;BME280;8009;50.070;8.232;2023-01-27T17:49:03;100767.88;;;4.49;71.30
15817;BME280;8009;50.070;8.232;2023-01-27T19:14:20;100818.00;;;4.21;72.79
15817;BME280;8009;50.070;8.232;2023-01-27T19:24:34;100816.28;;;4.43;71.19
15817;BME280;8009;50.070;8.232;2023-01-27T19:32:19;100822.81;;;4.34;71.61
15817;BME280;8009;50.070;8.232;2023-01-27T19:50:20;100832.13;;;4.24;71.06
15817;BME280;8009;50.070;8.232;2023-01-27T19:52:49;100834.44;;;4.33;70.97
15817;BME280;8009;50.070;8.232;2023-01-27T19:55:19;100830.44;;;4.22;71.16
15817;BME280;8009;50.070;8.232;2023-01-27T19:57:48;100836.84;;;4.41;70.36
15817;BME280;8009;50.070;8.232;2023-01-27T20:00:27;100840.06;;;4.51;70.47
15817;BME280;8009;50.070;8.232;2023-01-27T20:02:56;100846.66;;;4.40;70.60
15817;BME280;8009;50.070;8.232;2023-01-27T20:05:30;100839.31;;;4.47;70.51
15817;BME280;8009;50.070;8.232;2023-01-27T20:07:59;100847.53;;;4.41;70.95
15817;BME280;8009;50.070;8.232;2023-01-27T20:10:29;100848.97;;;4.26;70.72
15817;BME280;8009;50.070;8.232;2023-01-27T20:13:00;100838.66;;;4.15;70.74
15817;BME280;8009;50.070;8.232;2023-01-27T20:15:30;100843.91;;;4.19;70.63
15817;BME280;8009;50.070;8.232;2023-01-27T20:18:01;100855.31;;;4.24;70.65
15817;BME280;8009;50.070;8.232;2023-01-27T20:20:32;100850.19;;;4.18;70.72
15817;BME280;8009;50.070;8.232;2023-01-27T20:23:03;100857.00;;;4.50;69.38
15817;BME280;8009;50.070;8.232;2023-01-27T20:25:46;100857.66;;;4.33;69.69
15817;BME280;8009;50.070;8.232;2023-01-27T20:28:16;100859.34;;;4.35;69.76
15817;BME280;8009;50.070;8.232;2023-01-27T21:23:52;100881.84;;;4.03;69.35
15817;BME280;8009;50.070;8.232;2023-01-27T21:26:20;100882.59;;;4.08;68.89
15817;BME280;8009;50.070;8.232;2023-01-27T21:28:49;100880.66;;;3.87;69.96
15817;BME280;8009;50.070;8.232;2023-01-27T21:36:20;100888.84;;;3.81;70.16
15817;BME280;8009;50.070;8.232;2023-01-27T21:38:53;100891.88;;;3.70;70.52
15817;BME280;8009;50.070;8.232;2023-01-27T21:41:34;100888.84;;;3.81;70.07
15817;BME280;8009;50.070;8.232;2023-01-27T21:46:57;100881.00;;;4.03;70.28
15817;BME280;8009;50.070;8.232;2023-01-27T21:49:25;100889.63;;;3.84;69.75
15817;BME280;8009;50.070;8.232;2023-01-27T21:51:54;100884.19;;;3.87;69.77
15817;BME280;8009;50.070;8.232;2023-01-27T21:54:26;100888.47;;;3.66;70.54
15817;BME280;8009;50.070;8.232;2023-01-27T21:56:55;100892.13;;;3.89;70.19
15817;BME280;8009;50.070;8.232;2023-01-27T21:59:25;100888.84;;;3.81;70.08
15817;BME280;8009;50.070;8.232;2023-01-27T22:01:53;100888.81;;;3.82;70.08
15817;BME280;8009;50.070;8.232;2023-01-27T22:04:21;100886.66;;;3.94;69.78
15817;BME280;8009;50.070;8.232;2023-01-27T22:06:50;100886.25;;;4.06;69.68
15817;BME280;8009;50.070;8.232;2023-01-27T22:09:18;100882.28;;;3.91;70.30
15817;BME280;8009;50.070;8.232;2023-01-27T22:11:49;100879.69;;;3.89;70.00
15817;BME280;8009;50.070;8.232;2023-01-27T22:14:17;100891.00;;;3.96;69.63
15817;BME280;8009;50.070;8.232;2023-01-27T22:16:48;100889.88;;;3.77;70.84
15817;BME280;8009;50.070;8.232;2023-01-27T22:19:20;100893.50;;;3.76;70.76
15817;BME280;8009;50.070;8.232;2023-01-27T22:21:51;100901.81;;;3.66;71.42
15817;BME280;8009;50.070;8.232;2023-01-27T22:24:19;100891.34;;;3.87;70.08
15817;BME280;8009;50.070;8.232;2023-01-27T22:26:51;100890.91;;;3.99;69.58
15817;BME280;8009;50.070;8.232;2023-01-27T22:29:20;100889.94;;;4.02;69.26